createdAt,value
2022-08-11T00:01:50.842Z,58.00
2022-08-11T00:04:19.881Z,58.00
2022-08-11T00:06:48.181Z,58.10
2022-08-11T00:09:22.501Z,58.10
2022-08-11T00:11:58.485Z,58.20
2022-08-11T00:14:36.915Z,58.20
2022-08-11T00:17:10.879Z,58.20
2022-08-11T00:20:14.629Z,58.30
2022-08-11T00:22:30.370Z,58.30
2022-08-11T00:25:02.133Z,58.40
2022-08-11T00:27:36.970Z,58.40
2022-08-11T00:30:05.666Z,58.50
2022-08-11T00:32:33.483Z,58.60
2022-08-11T00:35:55.151Z,58.70
2022-08-11T00:37:50.833Z,58.70
2022-08-11T00:40:23.242Z,58.80
2022-08-11T00:43:10.802Z,58.80
2022-08-11T00:46:06.321Z,58.80
2022-08-11T00:48:49.330Z,58.90
2022-08-11T00:51:22.386Z,58.90
2022-08-11T00:54:03.020Z,58.90
2022-08-11T00:56:36.839Z,59.00
2022-08-11T00:59:34.943Z,58.90
2022-08-11T01:02:05.824Z,59.00
2022-08-11T01:04:55.891Z,59.00
2022-08-11T01:07:59.080Z,59.00
2022-08-11T01:10:47.752Z,59.10
2022-08-11T01:13:19.149Z,59.20
2022-08-11T01:16:06.496Z,59.20
2022-08-11T01:18:52.218Z,59.30
2022-08-11T01:21:38.110Z,59.40
2022-08-11T01:24:23.494Z,59.50
2022-08-11T01:27:19.133Z,59.50
2022-08-11T01:29:52.729Z,60.30
2022-08-11T01:32:39.519Z,59.70
2022-08-11T01:35:21.996Z,59.80
2022-08-11T01:37:59.145Z,59.80
2022-08-11T01:40:44.992Z,59.80
2022-08-11T01:43:33.506Z,59.90
2022-08-11T01:46:07.061Z,60.00
2022-08-11T01:48:39.023Z,60.20
2022-08-11T01:51:08.777Z,60.30
2022-08-11T01:54:03.702Z,60.30
2022-08-11T01:56:42.378Z,60.30
2022-08-11T01:59:28.586Z,60.40
2022-08-11T02:02:20.563Z,60.50
2022-08-11T02:04:57.749Z,60.60
2022-08-11T02:07:27.961Z,60.60
2022-08-11T02:09:57.953Z,60.50
2022-08-11T02:12:32.958Z,60.60
2022-08-11T02:15:05.111Z,60.60
2022-08-11T02:17:39.122Z,60.70
2022-08-11T02:20:38.865Z,60.80
2022-08-11T02:24:05.622Z,60.40
2022-08-11T02:26:24.502Z,61.00
2022-08-11T02:28:51.462Z,61.10
2022-08-11T02:32:24.200Z,61.10
2022-08-11T02:34:59.883Z,61.20
2022-08-11T02:37:52.049Z,61.30
2022-08-11T02:40:25.268Z,61.30
2022-08-11T02:43:12.962Z,61.50
2022-08-11T02:45:48.753Z,61.60
2022-08-11T02:48:51.506Z,61.60
2022-08-11T02:51:37.518Z,61.60
2022-08-11T02:54:11.070Z,61.70
2022-08-11T02:56:44.566Z,61.90
2022-08-11T02:59:42.051Z,61.90
2022-08-11T03:02:28.405Z,62.00
2022-08-11T03:04:58.710Z,62.90
2022-08-11T03:07:31.425Z,62.00
2022-08-11T03:10:05.814Z,62.20
2022-08-11T03:13:07.713Z,62.10
2022-08-11T03:16:02.800Z,62.10
2022-08-11T03:18:34.712Z,62.10
2022-08-11T03:22:01.661Z,62.30
2022-08-11T03:24:31.297Z,62.20
2022-08-11T03:27:01.753Z,62.20
2022-08-11T03:29:28.995Z,62.10
2022-08-11T03:32:03.723Z,62.20
2022-08-11T03:34:33.340Z,62.30
2022-08-11T03:37:17.689Z,62.20
2022-08-11T03:39:52.698Z,62.30
2022-08-11T03:42:30.321Z,62.50
2022-08-11T03:45:03.379Z,62.70
2022-08-11T03:47:33.910Z,62.80
2022-08-11T03:50:04.763Z,62.80
2022-08-11T03:52:46.889Z,62.80
2022-08-11T03:55:22.125Z,62.90
2022-08-11T03:57:49.292Z,63.00
2022-08-11T04:00:23.257Z,63.10
2022-08-11T04:03:08.791Z,63.10
2022-08-11T04:06:02.698Z,63.20
2022-08-11T04:08:48.853Z,63.50
2022-08-11T04:11:34.609Z,63.60
2022-08-11T04:14:21.384Z,63.60
2022-08-11T04:17:00.654Z,63.70
2022-08-11T04:19:46.722Z,63.60
2022-08-11T04:22:17.294Z,63.70
2022-08-11T04:24:50.449Z,63.80
2022-08-11T04:27:20.625Z,63.80
2022-08-11T04:30:03.094Z,63.80
2022-08-11T04:32:51.266Z,64.00
2022-08-11T04:35:31.120Z,64.00
2022-08-11T04:38:14.071Z,64.10
2022-08-11T04:40:56.719Z,64.20
2022-08-11T04:43:26.641Z,64.20
2022-08-11T04:46:13.497Z,64.20
2022-08-11T04:49:26.342Z,64.20
2022-08-11T04:52:22.659Z,64.20
2022-08-11T04:55:08.089Z,64.30
2022-08-11T04:58:02.901Z,64.30
2022-08-11T05:01:01.085Z,64.30
2022-08-11T05:03:47.989Z,64.30
2022-08-11T05:06:14.868Z,64.20
2022-08-11T05:08:51.134Z,64.30
2022-08-11T05:11:24.289Z,64.40
2022-08-11T05:14:11.343Z,64.30
2022-08-11T05:17:10.867Z,64.30
2022-08-11T05:19:58.536Z,64.30
2022-08-11T05:22:48.607Z,64.40
2022-08-11T05:26:42.533Z,64.50
2022-08-11T05:28:53.477Z,64.50
2022-08-11T05:31:45.112Z,64.50
2022-08-11T05:34:31.756Z,64.60
2022-08-11T05:37:25.810Z,64.60
2022-08-11T05:40:24.726Z,64.50
2022-08-11T05:43:14.465Z,64.60
2022-08-11T05:46:03.727Z,64.50
2022-08-11T05:48:54.703Z,64.60
2022-08-11T05:51:52.310Z,64.60
2022-08-11T05:54:42.516Z,64.60
2022-08-11T05:57:45.487Z,64.70
2022-08-11T06:00:11.862Z,64.70
2022-08-11T06:02:42.865Z,64.70
2022-08-11T06:05:10.599Z,64.80
2022-08-11T06:07:48.755Z,64.80
2022-08-11T06:10:55.126Z,64.90
2022-08-11T06:13:24.594Z,65.00
2022-08-11T06:15:55.954Z,65.10
2022-08-11T06:18:25.048Z,65.30
2022-08-11T06:20:54.151Z,65.20
2022-08-11T06:23:23.921Z,65.20
2022-08-11T06:25:52.169Z,65.40
2022-08-11T06:28:21.395Z,65.50
2022-08-11T06:30:49.074Z,65.70
2022-08-11T06:33:18.071Z,66.20
2022-08-11T06:36:17.455Z,66.20
2022-08-11T06:38:50.617Z,66.50
2022-08-11T06:41:32.497Z,66.60
2022-08-11T06:44:10.564Z,67.50
2022-08-11T06:46:41.703Z,68.30
2022-08-11T06:49:29.181Z,67.50
2022-08-11T06:52:01.659Z,67.40
2022-08-11T06:54:32.625Z,67.80
2022-08-11T06:57:29.910Z,67.50
2022-08-11T07:00:28.258Z,67.60
2022-08-11T07:03:03.495Z,67.90
2022-08-11T07:05:34.360Z,68.40
2022-08-11T07:08:38.912Z,68.70
2022-08-11T07:11:52.868Z,69.50
2022-08-11T07:14:41.703Z,70.20
2022-08-11T07:17:10.889Z,70.00
2022-08-11T07:19:57.720Z,69.20
2022-08-11T07:22:44.194Z,70.50
2022-08-11T07:25:38.014Z,69.70
2022-08-11T07:28:47.453Z,70.00
2022-08-11T07:31:16.947Z,70.70
2022-08-11T07:34:07.401Z,70.90
2022-08-11T07:36:41.004Z,71.20
2022-08-11T07:39:12.904Z,70.60
2022-08-11T07:41:39.969Z,70.60
2022-08-11T07:44:09.846Z,71.00
2022-08-11T07:47:01.980Z,71.30
2022-08-11T07:49:49.613Z,70.90
2022-08-11T07:52:33.673Z,71.40
2022-08-11T07:55:10.328Z,72.10
2022-08-11T07:58:16.520Z,72.50
2022-08-11T08:01:10.177Z,72.60
2022-08-11T08:03:57.374Z,72.30
2022-08-11T08:06:43.059Z,72.20
2022-08-11T08:09:29.035Z,72.50
2022-08-11T08:12:15.176Z,72.50
2022-08-11T08:15:01.355Z,72.30
2022-08-11T08:18:09.288Z,72.60
2022-08-11T08:20:39.786Z,72.70
2022-08-11T08:23:08.387Z,72.70
2022-08-11T08:25:36.517Z,72.80
2022-08-11T08:28:09.546Z,72.80
2022-08-11T08:30:50.852Z,72.70
2022-08-11T08:33:22.392Z,73.00
2022-08-11T08:35:54.532Z,72.80
2022-08-11T08:38:23.426Z,73.30
2022-08-11T08:40:54.716Z,72.80
2022-08-11T08:43:23.648Z,73.50
2022-08-11T08:45:53.896Z,73.50
2022-08-11T08:48:23.178Z,73.00
2022-08-11T08:51:15.352Z,73.10
2022-08-11T08:53:52.547Z,73.10
2022-08-11T08:56:28.242Z,73.00
2022-08-11T08:58:58.022Z,72.90
2022-08-11T09:01:26.111Z,73.00
2022-08-11T09:04:05.412Z,72.90
2022-08-11T09:06:39.888Z,72.70
2022-08-11T09:09:12.252Z,72.60
2022-08-11T09:11:50.747Z,72.40
2022-08-11T09:14:18.508Z,72.50
2022-08-11T09:16:45.948Z,72.30
2022-08-11T09:19:17.750Z,72.10
2022-08-11T09:22:06.216Z,72.20
2022-08-11T09:24:52.883Z,72.20
2022-08-11T09:27:20.929Z,72.20
2022-08-11T09:29:48.266Z,72.50
2022-08-11T09:32:19.328Z,72.60
2022-08-11T09:34:46.718Z,73.40
2022-08-11T09:37:55.294Z,74.30
2022-08-11T09:40:32.583Z,75.00
2022-08-11T09:43:20.268Z,74.20
2022-08-11T09:45:56.685Z,76.50
2022-08-11T09:48:25.049Z,78.20
2022-08-11T09:50:55.982Z,77.30
2022-08-11T09:53:35.731Z,76.30
2022-08-11T09:56:29.703Z,70.60
2022-08-11T09:58:57.019Z,74.70
2022-08-11T10:01:28.595Z,71.80
2022-08-11T10:03:57.953Z,71.60
2022-08-11T10:06:44.092Z,68.90
2022-08-11T10:09:19.693Z,68.20
2022-08-11T10:11:55.396Z,66.90
2022-08-11T10:14:44.869Z,62.30
2022-08-11T10:17:13.636Z,59.90
2022-08-11T10:19:42.631Z,61.20
2022-08-11T10:22:28.088Z,60.30
2022-08-11T10:25:19.961Z,59.10
2022-08-11T10:28:28.644Z,57.10
2022-08-11T10:30:57.467Z,54.20
2022-08-11T10:33:57.864Z,56.20
2022-08-11T10:36:31.150Z,54.80
2022-08-11T10:38:58.499Z,53.40
2022-08-11T10:42:02.082Z,51.60
2022-08-11T10:44:39.297Z,51.80
2022-08-11T10:47:25.851Z,51.00
2022-08-11T10:50:12.380Z,50.50
2022-08-11T10:52:58.855Z,51.40
2022-08-11T10:55:44.790Z,50.10
2022-08-11T10:58:30.982Z,50.90
2022-08-11T11:00:59.741Z,48.70
2022-08-11T11:03:28.071Z,48.20
2022-08-11T11:06:13.265Z,48.40
2022-08-11T11:08:57.672Z,47.60
2022-08-11T11:12:11.659Z,46.40
2022-08-11T11:14:59.426Z,45.90
2022-08-11T11:17:50.519Z,46.30
2022-08-11T11:20:36.154Z,46.20
2022-08-11T11:23:08.607Z,45.50
2022-08-11T11:25:35.582Z,45.10
2022-08-11T11:28:02.429Z,43.80
2022-08-11T11:30:33.369Z,43.80
2022-08-11T11:33:15.162Z,43.30
2022-08-11T11:35:55.608Z,42.00
2022-08-11T11:38:22.647Z,42.60
2022-08-11T11:41:09.609Z,42.50
2022-08-11T11:43:37.122Z,42.50
2022-08-11T11:46:08.347Z,42.60
2022-08-11T11:48:35.812Z,42.80
2022-08-11T11:51:02.995Z,41.40
2022-08-11T11:53:30.106Z,41.10
2022-08-11T11:55:59.148Z,38.90
2022-08-11T11:58:45.979Z,40.70
2022-08-11T12:01:16.581Z,41.70
2022-08-11T12:03:45.258Z,39.90
2022-08-11T12:06:14.368Z,40.10
2022-08-11T12:08:42.094Z,40.50
2022-08-11T12:11:31.796Z,36.60
2022-08-11T12:14:00.517Z,40.40
2022-08-11T12:16:33.124Z,38.00
2022-08-11T12:19:05.466Z,38.80
2022-08-11T12:21:32.558Z,38.40
2022-08-11T12:24:20.230Z,38.10
2022-08-11T12:26:54.369Z,38.90
2022-08-11T12:29:39.915Z,37.20
2022-08-11T12:32:08.584Z,38.10
2022-08-11T12:34:36.633Z,36.80
2022-08-11T12:37:13.709Z,37.80
2022-08-11T12:40:15.644Z,37.60
2022-08-11T12:43:21.844Z,37.60
2022-08-11T12:45:58.589Z,38.20
2022-08-11T12:48:59.136Z,37.60
2022-08-11T12:52:00.795Z,38.20
2022-08-11T12:54:36.798Z,37.30
2022-08-11T12:57:45.585Z,37.10
2022-08-11T13:00:30.671Z,37.30
2022-08-11T13:03:16.739Z,38.10
2022-08-11T13:05:45.429Z,36.90
2022-08-11T13:08:15.286Z,37.00
2022-08-11T13:11:01.758Z,37.60
2022-08-11T13:13:54.782Z,37.10
2022-08-11T13:16:17.087Z,36.30
2022-08-11T13:18:45.179Z,35.40
2022-08-11T13:21:19.991Z,35.50
2022-08-11T13:24:01.323Z,34.70
2022-08-11T13:26:47.913Z,34.10
2022-08-11T13:29:18.960Z,35.20
2022-08-11T13:31:46.419Z,33.50
2022-08-11T13:34:13.649Z,34.40
2022-08-11T13:36:41.602Z,34.50
2022-08-11T13:39:09.714Z,33.40
2022-08-11T13:41:39.249Z,34.30
2022-08-11T13:44:06.974Z,33.80
2022-08-11T13:46:34.215Z,33.00
2022-08-11T13:49:02.407Z,33.40
2022-08-11T13:51:34.432Z,34.20
2022-08-11T13:54:04.537Z,34.90
2022-08-11T13:56:32.448Z,35.40
2022-08-11T13:59:00.166Z,33.50
2022-08-11T14:02:04.011Z,34.70
2022-08-11T14:04:32.433Z,34.10
2022-08-11T14:07:01.011Z,34.90
2022-08-11T14:09:28.981Z,34.50
2022-08-11T14:12:22.402Z,35.10
2022-08-11T14:15:07.261Z,34.50
2022-08-11T14:17:48.089Z,36.90
2022-08-11T14:20:38.966Z,38.30
2022-08-11T14:23:04.820Z,37.20
2022-08-11T14:26:01.111Z,37.50
2022-08-11T14:28:31.714Z,38.80
2022-08-11T14:31:03.521Z,37.90
2022-08-11T14:33:58.705Z,36.30
2022-08-11T14:36:20.771Z,38.00
2022-08-11T14:38:48.099Z,38.00
2022-08-11T14:41:33.690Z,37.00
2022-08-11T14:44:19.335Z,39.60
2022-08-11T14:47:23.692Z,37.80
2022-08-11T14:50:02.575Z,37.80
2022-08-11T14:52:39.113Z,36.80
2022-08-11T14:55:25.878Z,39.20
2022-08-11T14:57:57.002Z,40.10
2022-08-11T15:00:25.020Z,39.00
2022-08-11T15:03:10.671Z,39.70
2022-08-11T15:05:45.120Z,39.70
2022-08-11T15:08:43.508Z,38.70
2022-08-11T15:11:31.763Z,39.50
2022-08-11T15:14:00.135Z,38.50
2022-08-11T15:16:46.024Z,40.20
2022-08-11T15:19:13.797Z,40.00
2022-08-11T15:21:59.300Z,39.30
2022-08-11T15:24:27.274Z,39.10
2022-08-11T15:27:17.484Z,39.10
2022-08-11T15:30:03.394Z,38.90
2022-08-11T15:32:50.079Z,38.90
2022-08-11T15:35:39.689Z,40.40
2022-08-11T15:38:07.617Z,40.10
2022-08-11T15:40:55.785Z,40.10
2022-08-11T15:43:53.269Z,40.40
2022-08-11T15:46:23.157Z,41.30
2022-08-11T15:48:58.115Z,41.90
2022-08-11T15:51:46.210Z,41.10
2022-08-11T15:54:17.378Z,40.00
2022-08-11T15:56:45.093Z,40.30
2022-08-11T15:59:42.487Z,39.30
2022-08-11T16:02:32.050Z,40.00
2022-08-11T16:05:00.326Z,41.40
2022-08-11T16:07:29.466Z,40.40
2022-08-11T16:10:06.691Z,41.30
2022-08-11T16:13:05.371Z,40.40
2022-08-11T16:15:58.337Z,40.60
2022-08-11T16:18:40.612Z,40.50
2022-08-11T16:21:08.913Z,40.60
2022-08-11T16:23:55.702Z,41.10
2022-08-11T16:27:11.434Z,41.40
2022-08-11T16:29:10.860Z,41.00
2022-08-11T16:31:38.849Z,41.20
2022-08-11T16:34:26.610Z,42.10
2022-08-11T16:37:14.075Z,42.00
2022-08-11T16:39:41.982Z,41.00
2022-08-11T16:46:12.484Z,40.90
2022-08-11T16:48:41.520Z,41.50
2022-08-11T16:51:10.700Z,41.80
2022-08-11T16:54:00.011Z,42.50
2022-08-11T16:56:35.803Z,41.60
2022-08-11T16:59:15.953Z,42.10
2022-08-11T17:01:45.857Z,41.60
2022-08-11T17:04:43.353Z,42.00
2022-08-11T17:07:42.198Z,42.60
2022-08-11T17:10:53.286Z,42.60
2022-08-11T17:13:42.546Z,42.50
2022-08-11T17:16:12.917Z,42.70
2022-08-11T17:18:58.797Z,42.80
2022-08-11T17:21:29.503Z,42.70
2022-08-11T17:24:01.050Z,43.00
2022-08-11T17:26:51.703Z,41.70
2022-08-11T17:29:23.719Z,41.70
2022-08-11T17:32:10.014Z,41.50
2022-08-11T17:34:55.657Z,42.00
2022-08-11T17:37:23.257Z,42.10
2022-08-11T17:39:52.414Z,42.30
2022-08-11T17:42:38.192Z,42.50
2022-08-11T17:45:24.290Z,42.40
2022-08-11T17:48:10.040Z,42.50
2022-08-11T17:50:37.705Z,41.60
2022-08-11T17:53:23.875Z,42.00
2022-08-11T17:56:10.238Z,42.10
2022-08-11T17:58:57.526Z,42.80
2022-08-11T18:01:25.183Z,42.80
2022-08-11T18:03:57.971Z,42.70
2022-08-11T18:06:34.920Z,43.30
2022-08-11T18:09:22.883Z,43.30
2022-08-11T18:12:11.874Z,43.40
2022-08-11T18:14:58.982Z,43.20
2022-08-11T18:17:44.831Z,42.50
2022-08-11T18:20:30.545Z,43.30
2022-08-11T18:23:16.922Z,43.00
2022-08-11T18:26:07.533Z,42.20
2022-08-11T18:29:03.115Z,43.50
2022-08-11T18:31:51.387Z,43.60
2022-08-11T18:34:39.996Z,43.80
2022-08-11T18:37:29.569Z,43.80
2022-08-11T18:40:27.151Z,44.10
2022-08-11T18:43:15.723Z,44.10
2022-08-11T18:46:06.401Z,44.30
2022-08-11T18:48:55.369Z,44.50
2022-08-11T18:51:42.507Z,44.40
2022-08-11T18:54:29.111Z,44.30
2022-08-11T18:57:16.278Z,44.50
2022-08-11T19:00:02.604Z,44.50
2022-08-11T19:02:50.257Z,44.60
2022-08-11T19:06:08.361Z,44.60
2022-08-11T19:08:47.554Z,44.60
2022-08-11T19:11:33.758Z,45.30
2022-08-11T19:14:22.970Z,45.50
2022-08-11T19:17:09.706Z,45.70
2022-08-11T19:19:56.016Z,46.00
2022-08-11T19:22:41.724Z,46.10
2022-08-11T19:25:29.196Z,46.00
2022-08-11T19:28:16.347Z,46.60
2022-08-11T19:31:02.167Z,46.40
2022-08-11T19:33:59.993Z,46.40
2022-08-11T19:36:53.988Z,46.60
2022-08-11T19:39:39.915Z,49.10
2022-08-11T19:42:29.258Z,47.60
2022-08-11T19:45:16.035Z,47.70
2022-08-11T19:48:28.504Z,48.30
2022-08-11T19:51:09.440Z,47.50
2022-08-11T19:53:55.718Z,47.40
2022-08-11T19:56:43.163Z,47.70
2022-08-11T19:59:28.902Z,47.50
2022-08-11T20:02:14.890Z,47.70
2022-08-11T20:05:01.285Z,47.70
2022-08-11T20:07:47.857Z,48.20
2022-08-11T20:10:35.557Z,48.50
2022-08-11T20:13:21.955Z,48.70
2022-08-11T20:16:07.905Z,48.50
2022-08-11T20:18:54.421Z,51.10
2022-08-11T20:21:40.081Z,49.00
2022-08-11T20:24:26.674Z,48.80
2022-08-11T20:27:24.756Z,48.70
2022-08-11T20:30:11.524Z,48.70
2022-08-11T20:32:57.997Z,48.70
2022-08-11T20:35:44.319Z,49.40
2022-08-11T20:38:30.467Z,49.60
2022-08-11T20:41:16.045Z,49.20
2022-08-11T20:44:06.082Z,49.70
2022-08-11T20:46:57.658Z,50.20
2022-08-11T20:50:03.130Z,49.60
2022-08-11T20:52:50.414Z,49.50
2022-08-11T20:55:55.202Z,49.60
2022-08-11T21:01:52.058Z,49.60
2022-08-11T21:04:54.281Z,49.40
2022-08-11T21:07:42.366Z,49.40
2022-08-11T21:10:29.027Z,49.70
2022-08-11T21:13:24.208Z,49.60
2022-08-11T21:16:24.985Z,49.70
2022-08-11T21:19:59.604Z,50.20
2022-08-11T21:22:38.105Z,49.90
2022-08-11T21:25:27.126Z,49.80
2022-08-11T21:28:16.167Z,49.80
2022-08-11T21:31:01.791Z,50.00
2022-08-11T21:33:49.844Z,50.10
2022-08-11T21:36:36.532Z,50.10
2022-08-11T21:39:25.084Z,50.50
2022-08-11T21:42:12.549Z,50.30
2022-08-11T21:45:00.303Z,50.50
2022-08-11T21:47:47.456Z,50.50
2022-08-11T21:50:32.872Z,50.70
2022-08-11T21:53:18.576Z,50.90
2022-08-11T21:56:04.727Z,51.00
2022-08-11T21:58:51.278Z,51.10
2022-08-11T22:01:37.579Z,51.20
2022-08-11T22:04:23.731Z,51.30
2022-08-11T22:07:09.978Z,51.40
2022-08-11T22:09:56.638Z,51.50
2022-08-11T22:12:45.312Z,51.50
2022-08-11T22:15:31.676Z,51.70
2022-08-11T22:18:20.622Z,51.80
2022-08-11T22:21:08.428Z,52.50
2022-08-11T22:23:58.857Z,51.90
2022-08-11T22:26:47.451Z,52.10
2022-08-11T22:29:38.312Z,52.20
2022-08-11T22:32:37.812Z,52.30
2022-08-11T22:35:24.507Z,52.30
2022-08-11T22:38:15.213Z,52.30
2022-08-11T22:41:00.811Z,52.40
2022-08-11T22:43:46.408Z,52.60
2022-08-11T22:46:34.010Z,52.50
2022-08-11T22:49:20.572Z,52.60
2022-08-11T22:52:06.780Z,52.70
2022-08-11T22:54:53.109Z,52.70
2022-08-11T22:57:39.755Z,52.70
2022-08-11T23:00:25.347Z,52.80
2022-08-11T23:03:36.866Z,53.00
2022-08-11T23:06:24.078Z,53.00
2022-08-11T23:09:09.797Z,53.20
2022-08-11T23:12:06.872Z,53.30
2022-08-11T23:14:53.547Z,53.40
2022-08-11T23:17:39.210Z,53.50
2022-08-11T23:20:40.722Z,53.50
2022-08-11T23:23:31.157Z,53.50
2022-08-11T23:26:17.614Z,53.60
2022-08-11T23:29:06.042Z,53.70
2022-08-11T23:31:53.444Z,53.80
2022-08-11T23:35:03.732Z,53.80
2022-08-11T23:37:51.077Z,54.00
2022-08-11T23:40:36.690Z,54.10
2022-08-11T23:43:23.297Z,54.30
2022-08-11T23:46:08.851Z,54.40
2022-08-11T23:48:56.530Z,54.50
2022-08-11T23:51:42.746Z,54.60
2022-08-11T23:54:32.679Z,54.70
2022-08-11T23:57:22.485Z,54.70
